createdAt,value
2022-08-26T00:01:58.534Z,20.60
2022-08-26T00:05:23.183Z,20.60
2022-08-26T00:08:46.332Z,20.50
2022-08-26T00:12:12.132Z,20.50
2022-08-26T00:15:34.890Z,20.40
2022-08-26T00:18:57.194Z,20.40
2022-08-26T00:22:21.699Z,20.40
2022-08-26T00:25:44.110Z,20.40
2022-08-26T00:29:06.808Z,20.40
2022-08-26T00:32:29.016Z,20.30
2022-08-26T00:35:51.628Z,20.30
2022-08-26T00:39:14.115Z,20.40
2022-08-26T00:42:37.018Z,20.40
2022-08-26T00:46:02.883Z,20.30
2022-08-26T00:49:35.911Z,20.30
2022-08-26T00:53:00.379Z,20.30
2022-08-26T00:56:57.628Z,20.20
2022-08-26T01:00:27.217Z,20.20
2022-08-26T01:03:49.827Z,20.10
2022-08-26T01:07:12.317Z,20.10
2022-08-26T01:10:34.714Z,20.10
2022-08-26T01:13:59.889Z,20.10
2022-08-26T01:17:21.982Z,20.10
2022-08-26T01:20:46.924Z,20.00
2022-08-26T01:24:10.726Z,20.00
2022-08-26T01:27:33.718Z,20.00
2022-08-26T01:30:57.541Z,19.90
2022-08-26T01:34:25.165Z,19.70
2022-08-26T01:37:50.078Z,19.60
2022-08-26T01:41:20.012Z,19.50
2022-08-26T01:44:57.655Z,19.40
2022-08-26T01:48:24.278Z,19.40
2022-08-26T01:51:48.067Z,19.40
2022-08-26T01:55:14.674Z,19.40
2022-08-26T01:58:56.893Z,19.40
2022-08-26T02:02:20.044Z,19.40
2022-08-26T02:05:48.805Z,19.40
2022-08-26T02:09:14.545Z,19.40
2022-08-26T02:12:37.828Z,19.30
2022-08-26T02:16:02.158Z,19.30
2022-08-26T02:19:29.300Z,19.30
2022-08-26T02:22:51.987Z,19.30
2022-08-26T02:26:20.488Z,19.30
2022-08-26T02:29:47.389Z,19.20
2022-08-26T02:33:12.658Z,19.70
2022-08-26T02:36:34.940Z,20.60
2022-08-26T02:39:57.331Z,21.20
2022-08-26T02:43:19.578Z,21.50
2022-08-26T02:46:54.707Z,21.70
2022-08-26T02:50:17.111Z,21.90
2022-08-26T02:53:39.913Z,22.00
2022-08-26T02:57:02.929Z,22.00
2022-08-26T03:00:25.848Z,22.10
2022-08-26T03:03:48.400Z,22.20
2022-08-26T03:07:11.819Z,22.20
2022-08-26T03:10:34.338Z,22.30
2022-08-26T03:13:57.271Z,22.30
2022-08-26T03:17:19.734Z,22.40
2022-08-26T03:20:41.958Z,22.40
2022-08-26T03:24:06.325Z,22.40
2022-08-26T03:27:28.530Z,22.50
2022-08-26T03:30:55.692Z,22.50
2022-08-26T03:34:18.941Z,22.50
2022-08-26T03:37:41.156Z,22.50
2022-08-26T03:41:03.329Z,22.50
2022-08-26T03:44:25.678Z,22.60
2022-08-26T03:47:48.755Z,22.60
2022-08-26T03:51:14.293Z,22.60
2022-08-26T03:54:41.109Z,22.60
2022-08-26T03:58:05.815Z,22.60
2022-08-26T04:01:29.723Z,22.60
2022-08-26T04:04:53.148Z,22.60
2022-08-26T04:08:16.086Z,22.60
2022-08-26T04:11:39.606Z,22.70
2022-08-26T04:15:03.329Z,22.70
2022-08-26T04:18:31.459Z,22.70
2022-08-26T04:22:00.292Z,22.70
2022-08-26T04:25:24.288Z,22.70
2022-08-26T04:28:49.831Z,22.70
2022-08-26T04:32:12.033Z,22.70
2022-08-26T04:35:35.181Z,22.70
2022-08-26T04:39:00.388Z,22.70
2022-08-26T04:42:22.877Z,22.80
2022-08-26T04:45:48.988Z,22.80
2022-08-26T04:49:12.216Z,22.80
2022-08-26T04:52:35.558Z,22.80
2022-08-26T04:55:57.858Z,22.80
2022-08-26T04:59:20.474Z,22.80
2022-08-26T05:02:43.897Z,22.80
2022-08-26T05:06:06.790Z,22.80
2022-08-26T05:09:31.661Z,22.90
2022-08-26T05:12:53.849Z,22.80
2022-08-26T05:16:16.656Z,22.90
2022-08-26T05:19:40.435Z,22.80
2022-08-26T05:23:05.361Z,22.80
2022-08-26T05:26:31.685Z,22.80
2022-08-26T05:29:57.573Z,22.80
2022-08-26T05:33:20.487Z,22.80
2022-08-26T05:36:42.738Z,22.40
2022-08-26T05:40:06.873Z,21.40
2022-08-26T05:43:31.375Z,20.50
2022-08-26T05:46:53.726Z,19.70
2022-08-26T05:50:16.160Z,19.50
2022-08-26T05:53:40.652Z,19.80
2022-08-26T05:57:06.233Z,20.10
2022-08-26T06:00:28.553Z,20.20
2022-08-26T06:03:53.150Z,20.30
2022-08-26T06:07:16.871Z,20.30
2022-08-26T06:10:53.385Z,20.50
2022-08-26T06:14:17.220Z,20.50
2022-08-26T06:17:40.799Z,20.60
2022-08-26T06:21:20.318Z,20.80
2022-08-26T06:25:00.978Z,20.90
2022-08-26T06:28:24.545Z,20.90
2022-08-26T06:31:47.692Z,21.00
2022-08-26T06:35:11.857Z,21.00
2022-08-26T06:38:34.665Z,21.10
2022-08-26T06:42:00.167Z,21.50
2022-08-26T06:45:22.452Z,21.80
2022-08-26T06:48:45.812Z,22.00
2022-08-26T06:52:08.036Z,22.10
2022-08-26T06:55:32.010Z,22.20
2022-08-26T06:58:54.608Z,22.30
2022-08-26T07:02:18.251Z,22.50
2022-08-26T07:05:40.747Z,22.60
2022-08-26T07:09:05.642Z,22.70
2022-08-26T07:12:36.097Z,22.70
2022-08-26T07:16:03.043Z,22.80
2022-08-26T07:19:30.769Z,22.80
2022-08-26T07:22:53.903Z,22.80
2022-08-26T07:26:22.615Z,22.70
2022-08-26T07:29:47.188Z,22.80
2022-08-26T07:33:09.575Z,23.00
2022-08-26T07:36:33.145Z,23.00
2022-08-26T07:39:55.774Z,23.10
2022-08-26T07:43:18.434Z,23.10
2022-08-26T07:46:43.980Z,23.20
2022-08-26T07:50:06.565Z,23.20
2022-08-26T07:53:29.305Z,23.40
2022-08-26T07:56:51.883Z,23.30
2022-08-26T08:00:16.284Z,23.20
2022-08-26T08:03:40.453Z,23.20
2022-08-26T08:07:02.666Z,23.20
2022-08-26T08:10:26.716Z,23.20
2022-08-26T08:13:56.059Z,23.20
2022-08-26T08:17:18.836Z,23.20
2022-08-26T08:20:44.828Z,23.20
2022-08-26T08:24:16.661Z,23.20
2022-08-26T08:27:40.180Z,23.30
2022-08-26T08:31:03.315Z,23.30
2022-08-26T08:34:28.227Z,23.30
2022-08-26T08:37:54.290Z,23.20
2022-08-26T08:41:32.455Z,23.20
2022-08-26T08:44:58.360Z,23.30
2022-08-26T08:48:29.211Z,23.30
2022-08-26T08:51:51.608Z,23.30
2022-08-26T08:55:18.091Z,23.40
2022-08-26T08:58:53.206Z,23.40
2022-08-26T09:02:19.256Z,23.40
2022-08-26T09:05:48.746Z,23.40
2022-08-26T09:09:20.205Z,23.40
2022-08-26T09:12:43.647Z,23.50
2022-08-26T09:16:11.290Z,23.50
2022-08-26T09:19:38.749Z,23.50
2022-08-26T09:23:01.190Z,23.60
2022-08-26T09:26:47.456Z,23.70
2022-08-26T09:30:15.631Z,23.70
2022-08-26T09:33:38.074Z,23.90
2022-08-26T09:37:00.773Z,23.90
2022-08-26T09:40:35.829Z,23.90
2022-08-26T09:44:14.757Z,23.90
2022-08-26T09:47:45.512Z,23.90
2022-08-26T09:51:32.528Z,24.00
2022-08-26T09:55:15.078Z,23.90
2022-08-26T09:58:41.923Z,23.90
2022-08-26T10:02:27.396Z,23.80
2022-08-26T10:06:06.170Z,23.70
2022-08-26T10:09:33.245Z,23.60
2022-08-26T10:13:13.921Z,23.60
2022-08-26T10:16:52.654Z,23.70
2022-08-26T10:20:24.072Z,23.80
2022-08-26T10:23:54.825Z,23.90
2022-08-26T10:27:27.251Z,24.00
2022-08-26T10:31:23.006Z,24.10
2022-08-26T10:34:50.153Z,24.00
2022-08-26T10:38:19.578Z,23.90
2022-08-26T10:41:45.393Z,24.10
2022-08-26T10:45:14.963Z,24.30
2022-08-26T10:48:53.587Z,24.40
2022-08-26T10:53:12.599Z,24.40
2022-08-26T10:56:53.210Z,24.40
2022-08-26T11:00:58.390Z,24.40
2022-08-26T11:04:53.294Z,24.40
2022-08-26T11:08:21.077Z,24.30
2022-08-26T11:11:48.726Z,24.30
2022-08-26T11:15:29.380Z,24.20
2022-08-26T11:18:55.796Z,24.30
2022-08-26T11:22:36.339Z,24.30
2022-08-26T11:26:01.503Z,24.30
2022-08-26T11:30:29.264Z,24.40
2022-08-26T11:33:57.064Z,24.40
2022-08-26T11:41:06.516Z,24.40
2022-08-26T11:44:41.197Z,24.40
2022-08-26T11:48:19.448Z,24.50
2022-08-26T11:51:48.147Z,24.40
2022-08-26T11:55:14.348Z,24.40
2022-08-26T11:58:44.659Z,24.30
2022-08-26T12:02:15.219Z,24.30
2022-08-26T12:05:46.104Z,24.30
2022-08-26T12:09:13.851Z,24.20
2022-08-26T12:12:39.416Z,24.20
2022-08-26T12:16:02.558Z,24.10
2022-08-26T12:19:33.779Z,24.10
2022-08-26T12:22:58.783Z,24.20
2022-08-26T12:26:26.946Z,24.30
2022-08-26T12:30:09.593Z,24.30
2022-08-26T12:33:36.392Z,24.30
2022-08-26T12:40:41.694Z,24.30
2022-08-26T12:44:03.906Z,24.20
2022-08-26T12:47:35.140Z,24.30
2022-08-26T12:51:21.754Z,24.30
2022-08-26T12:54:59.093Z,24.30
2022-08-26T12:58:26.404Z,24.40
2022-08-26T13:01:49.467Z,24.40
2022-08-26T13:05:33.139Z,24.40
2022-08-26T13:09:23.538Z,24.40
2022-08-26T13:12:46.728Z,24.40
2022-08-26T13:16:09.010Z,24.40
2022-08-26T13:19:31.286Z,24.50
2022-08-26T13:22:58.610Z,24.40
2022-08-26T13:26:22.469Z,24.50
2022-08-26T13:29:44.658Z,24.50
2022-08-26T13:33:08.684Z,24.40
2022-08-26T13:36:34.383Z,24.50
2022-08-26T13:39:56.684Z,24.50
2022-08-26T13:43:19.050Z,24.40
2022-08-26T13:46:42.292Z,24.40
2022-08-26T13:50:05.713Z,24.40
2022-08-26T13:53:30.417Z,24.40
2022-08-26T13:56:52.761Z,24.40
2022-08-26T14:00:15.866Z,24.40
2022-08-26T14:03:38.342Z,24.50
2022-08-26T14:07:00.596Z,24.50
2022-08-26T14:10:23.937Z,24.50
2022-08-26T14:13:46.255Z,24.50
2022-08-26T14:17:08.509Z,24.60
2022-08-26T14:20:31.909Z,24.60
2022-08-26T14:23:57.812Z,24.60
2022-08-26T14:27:22.578Z,24.50
2022-08-26T14:30:51.078Z,24.60
2022-08-26T14:34:14.334Z,24.60
2022-08-26T14:37:37.238Z,24.50
2022-08-26T14:40:59.461Z,24.50
2022-08-26T14:44:31.148Z,24.40
2022-08-26T14:47:56.576Z,24.40
2022-08-26T14:51:21.470Z,24.40
2022-08-26T14:54:44.681Z,24.50
2022-08-26T14:58:07.144Z,24.50
2022-08-26T15:01:31.939Z,24.50
2022-08-26T15:04:54.362Z,24.50
2022-08-26T15:08:16.757Z,24.50
2022-08-26T15:11:39.054Z,24.40
2022-08-26T15:15:01.274Z,24.40
2022-08-26T15:18:23.543Z,24.50
2022-08-26T15:21:46.977Z,24.40
2022-08-26T15:25:09.869Z,24.40
2022-08-26T15:28:32.050Z,24.40
2022-08-26T15:31:55.304Z,24.40
2022-08-26T15:35:20.340Z,24.30
2022-08-26T15:38:42.687Z,24.40
2022-08-26T15:42:05.266Z,24.40
2022-08-26T15:45:27.889Z,24.30
2022-08-26T15:48:50.097Z,24.40
2022-08-26T15:52:12.350Z,24.30
2022-08-26T15:55:34.503Z,24.20
2022-08-26T15:58:57.650Z,24.20
2022-08-26T16:02:21.403Z,24.20
2022-08-26T16:05:44.529Z,24.10
2022-08-26T16:09:07.539Z,24.10
2022-08-26T16:12:29.703Z,24.20
2022-08-26T16:15:53.536Z,24.20
2022-08-26T16:19:15.886Z,24.20
2022-08-26T16:22:38.128Z,24.20
2022-08-26T16:26:00.566Z,24.20
2022-08-26T16:29:22.955Z,24.20
2022-08-26T16:32:46.070Z,24.20
2022-08-26T16:36:09.098Z,24.20
2022-08-26T16:39:31.421Z,24.20
2022-08-26T16:42:54.864Z,24.10
2022-08-26T16:46:17.221Z,24.10
2022-08-26T16:49:40.455Z,24.10
2022-08-26T16:53:02.688Z,24.10
2022-08-26T16:56:27.664Z,24.30
2022-08-26T16:59:56.593Z,24.20
2022-08-26T17:03:18.842Z,24.20
2022-08-26T17:06:41.312Z,24.20
2022-08-26T17:10:05.708Z,24.10
2022-08-26T17:13:35.581Z,24.10
2022-08-26T17:16:58.299Z,24.10
2022-08-26T17:20:22.317Z,24.10
2022-08-26T17:23:45.053Z,24.20
2022-08-26T17:27:07.538Z,24.20
2022-08-26T17:30:30.833Z,24.20
2022-08-26T17:33:55.405Z,24.20
2022-08-26T17:37:17.836Z,24.10
2022-08-26T17:40:40.233Z,24.10
2022-08-26T17:44:02.693Z,24.10
2022-08-26T17:47:25.051Z,24.00
2022-08-26T17:50:49.600Z,23.90
2022-08-26T17:54:12.097Z,23.90
2022-08-26T17:57:40.621Z,23.90
2022-08-26T18:01:06.116Z,23.90
2022-08-26T18:04:28.634Z,23.90
2022-08-26T18:07:51.545Z,23.80
2022-08-26T18:11:17.430Z,23.70
2022-08-26T18:14:39.614Z,23.70
2022-08-26T18:18:01.760Z,23.70
2022-08-26T18:21:26.879Z,23.60
2022-08-26T18:24:58.206Z,23.60
2022-08-26T18:28:21.756Z,23.60
2022-08-26T18:31:44.418Z,23.50
2022-08-26T18:35:07.344Z,23.30
2022-08-26T18:38:29.620Z,23.20
2022-08-26T18:41:53.280Z,23.10
2022-08-26T18:45:16.116Z,23.10
2022-08-26T18:48:39.616Z,23.10
2022-08-26T18:52:01.927Z,23.20
2022-08-26T18:55:24.263Z,23.20
2022-08-26T18:58:46.866Z,23.20
2022-08-26T19:02:09.694Z,23.30
2022-08-26T19:05:31.985Z,23.50
2022-08-26T19:08:54.529Z,23.70
2022-08-26T19:12:18.067Z,23.80
2022-08-26T19:15:42.687Z,23.90
2022-08-26T19:19:05.588Z,23.90
2022-08-26T19:22:27.841Z,23.90
2022-08-26T19:25:52.033Z,23.90
2022-08-26T19:29:15.447Z,23.90
2022-08-26T19:32:38.258Z,24.00
2022-08-26T19:36:03.675Z,24.10
2022-08-26T19:39:28.471Z,24.00
2022-08-26T19:42:50.752Z,23.90
2022-08-26T19:46:16.004Z,23.90
2022-08-26T19:49:38.575Z,23.80
2022-08-26T19:53:01.789Z,23.80
2022-08-26T19:56:24.113Z,23.70
2022-08-26T19:59:46.450Z,23.70
2022-08-26T20:03:10.633Z,23.70
2022-08-26T20:06:37.090Z,23.60
2022-08-26T20:09:59.565Z,23.60
2022-08-26T20:13:22.024Z,23.60
2022-08-26T20:16:44.418Z,23.70
2022-08-26T20:20:33.453Z,23.70
2022-08-26T20:23:58.365Z,23.70
2022-08-26T20:27:27.447Z,23.70
2022-08-26T20:31:01.964Z,23.70
2022-08-26T20:34:24.656Z,23.70
2022-08-26T20:37:47.517Z,23.50
2022-08-26T20:41:10.366Z,23.60
2022-08-26T20:44:33.614Z,23.60
2022-08-26T20:47:35.644Z,23.60
2022-08-26T20:50:58.901Z,23.60
2022-08-26T20:54:26.204Z,23.60
2022-08-26T20:57:51.412Z,23.70
2022-08-26T21:01:24.406Z,23.90
2022-08-26T21:04:46.898Z,23.80
2022-08-26T21:08:09.547Z,23.70
2022-08-26T21:11:35.490Z,23.70
2022-08-26T21:14:57.708Z,23.70
2022-08-26T21:18:19.933Z,23.70
2022-08-26T21:21:42.382Z,23.60
2022-08-26T21:25:05.003Z,23.60
2022-08-26T21:28:27.193Z,23.60
2022-08-26T21:31:49.679Z,23.70
2022-08-26T21:35:12.078Z,23.80
2022-08-26T21:38:36.513Z,23.70
2022-08-26T21:41:59.181Z,23.70
2022-08-26T21:45:22.690Z,23.70
2022-08-26T21:48:51.197Z,23.70
2022-08-26T21:52:13.652Z,23.70
2022-08-26T21:55:38.570Z,23.70
2022-08-26T21:59:01.387Z,23.70
2022-08-26T22:02:23.743Z,23.60
2022-08-26T22:05:51.195Z,23.60
2022-08-26T22:09:16.000Z,23.60
2022-08-26T22:12:38.656Z,23.70
2022-08-26T22:16:01.455Z,23.70
2022-08-26T22:19:24.473Z,23.60
2022-08-26T22:22:47.442Z,23.60
2022-08-26T22:26:12.133Z,23.50
2022-08-26T22:29:34.514Z,23.50
2022-08-26T22:32:56.821Z,23.50
2022-08-26T22:36:22.347Z,23.50
2022-08-26T22:39:44.584Z,23.50
2022-08-26T22:43:07.686Z,23.50
2022-08-26T22:46:30.230Z,23.50
2022-08-26T22:49:52.532Z,23.40
2022-08-26T22:53:16.386Z,23.40
2022-08-26T22:56:38.658Z,23.40
2022-08-26T23:00:00.924Z,23.40
2022-08-26T23:03:23.169Z,23.40
2022-08-26T23:06:47.541Z,23.40
2022-08-26T23:10:11.005Z,23.40
2022-08-26T23:13:33.277Z,23.40
2022-08-26T23:16:55.578Z,23.40
2022-08-26T23:20:19.545Z,23.40
2022-08-26T23:23:41.761Z,23.40
2022-08-26T23:27:04.718Z,23.30
2022-08-26T23:30:29.743Z,23.30
2022-08-26T23:34:10.341Z,23.30
2022-08-26T23:37:35.093Z,23.30
2022-08-26T23:40:58.132Z,23.30
2022-08-26T23:44:20.736Z,23.30
2022-08-26T23:47:42.984Z,23.30
2022-08-26T23:51:23.932Z,23.20
2022-08-26T23:54:48.611Z,23.20
2022-08-26T23:58:11.115Z,23.20
